createdAt,value
2023-04-03T00:02:15.469Z,100.00
2023-04-03T00:05:12.315Z,100.00
2023-04-03T00:08:10.507Z,100.00
2023-04-03T00:11:08.666Z,100.00
2023-04-03T00:14:05.500Z,100.00
2023-04-03T00:17:02.325Z,100.00
2023-04-03T00:19:59.276Z,100.00
2023-04-03T00:22:56.427Z,100.00
2023-04-03T00:25:54.307Z,100.00
2023-04-03T00:28:51.145Z,100.00
2023-04-03T00:31:47.929Z,100.00
2023-04-03T00:34:45.352Z,100.00
2023-04-03T00:37:42.935Z,100.00
2023-04-03T00:40:44.928Z,100.00
2023-04-03T00:43:41.920Z,100.00
2023-04-03T00:46:38.776Z,100.00
2023-04-03T00:49:38.047Z,100.00
2023-04-03T00:52:34.980Z,100.00
2023-04-03T00:55:32.738Z,100.00
2023-04-03T00:58:40.069Z,100.00
2023-04-03T01:01:38.218Z,100.00
2023-04-03T01:04:39.474Z,100.00
2023-04-03T01:07:37.985Z,100.00
2023-04-03T01:10:35.155Z,100.00
2023-04-03T01:13:34.298Z,100.00
2023-04-03T01:16:32.765Z,100.00
2023-04-03T01:19:30.538Z,100.00
2023-04-03T01:22:59.774Z,100.00
2023-04-03T01:25:58.284Z,100.00
2023-04-03T01:28:56.519Z,100.00
2023-04-03T01:31:59.644Z,100.00
2023-04-03T01:34:56.483Z,100.00
2023-04-03T01:37:53.411Z,100.00
2023-04-03T01:40:50.236Z,100.00
2023-04-03T01:43:47.147Z,100.00
2023-04-03T01:46:44.055Z,100.00
2023-04-03T01:49:41.081Z,100.00
2023-04-03T01:52:37.888Z,100.00
2023-04-03T01:55:34.783Z,100.00
2023-04-03T01:58:31.674Z,100.00
2023-04-03T02:01:28.615Z,100.00
2023-04-03T02:04:25.737Z,100.00
2023-04-03T02:07:22.624Z,100.00
2023-04-03T02:10:19.598Z,100.00
2023-04-03T02:13:17.962Z,100.00
2023-04-03T02:16:14.901Z,100.00
2023-04-03T02:19:11.850Z,100.00
2023-04-03T02:22:08.643Z,100.00
2023-04-03T02:25:06.096Z,100.00
2023-04-03T02:28:02.937Z,100.00
2023-04-03T02:30:59.881Z,100.00
2023-04-03T02:33:56.804Z,100.00
2023-04-03T02:36:53.593Z,100.00
2023-04-03T02:39:50.668Z,100.00
2023-04-03T02:42:47.497Z,100.00
2023-04-03T02:45:44.745Z,100.00
2023-04-03T02:48:41.606Z,100.00
2023-04-03T02:51:38.436Z,100.00
2023-04-03T02:54:35.366Z,100.00
2023-04-03T02:57:32.205Z,100.00
2023-04-03T03:00:29.225Z,100.00
2023-04-03T03:03:26.029Z,100.00
2023-04-03T03:06:22.832Z,100.00
2023-04-03T03:09:19.793Z,100.00
2023-04-03T03:12:16.776Z,100.00
2023-04-03T03:15:13.877Z,100.00
2023-04-03T03:18:10.770Z,100.00
2023-04-03T03:21:07.615Z,100.00
2023-04-03T03:24:04.596Z,100.00
2023-04-03T03:27:01.429Z,100.00
2023-04-03T03:29:58.264Z,100.00
2023-04-03T03:32:55.344Z,100.00
2023-04-03T03:35:54.193Z,100.00
2023-04-03T03:38:51.157Z,100.00
2023-04-03T03:41:48.406Z,100.00
2023-04-03T03:44:45.318Z,100.00
2023-04-03T03:47:42.249Z,100.00
2023-04-03T03:50:39.152Z,100.00
2023-04-03T03:53:36.096Z,100.00
2023-04-03T03:56:33.131Z,100.00
2023-04-03T03:59:29.987Z,100.00
2023-04-03T04:02:27.081Z,100.00
2023-04-03T04:05:24.146Z,100.00
2023-04-03T04:08:21.049Z,100.00
2023-04-03T04:11:17.990Z,100.00
2023-04-03T04:14:15.002Z,100.00
2023-04-03T04:17:11.848Z,100.00
2023-04-03T04:20:09.600Z,100.00
2023-04-03T04:23:06.401Z,100.00
2023-04-03T04:26:03.339Z,100.00
2023-04-03T04:29:00.249Z,100.00
2023-04-03T04:31:57.070Z,100.00
2023-04-03T04:34:53.912Z,100.00
2023-04-03T04:37:51.061Z,100.00
2023-04-03T04:40:49.548Z,100.00
2023-04-03T04:43:46.365Z,100.00
2023-04-03T04:46:43.290Z,100.00
2023-04-03T04:49:40.217Z,100.00
2023-04-03T04:52:37.234Z,100.00
2023-04-03T04:55:34.100Z,100.00
2023-04-03T04:58:30.996Z,100.00
2023-04-03T05:01:27.831Z,100.00
2023-04-03T05:04:24.795Z,100.00
2023-04-03T05:07:21.693Z,100.00
2023-04-03T05:10:18.636Z,100.00
2023-04-03T05:13:15.769Z,100.00
2023-04-03T05:16:12.739Z,100.00
2023-04-03T05:19:09.813Z,100.00
2023-04-03T05:22:07.044Z,100.00
2023-04-03T05:25:04.714Z,100.00
2023-04-03T05:28:01.576Z,100.00
2023-04-03T05:30:59.857Z,100.00
2023-04-03T05:33:57.133Z,100.00
2023-04-03T05:36:54.138Z,100.00
2023-04-03T05:39:51.335Z,100.00
2023-04-03T05:42:48.255Z,100.00
2023-04-03T05:45:46.848Z,100.00
2023-04-03T05:48:45.420Z,100.00
2023-04-03T05:51:42.444Z,100.00
2023-04-03T05:54:39.779Z,100.00
2023-04-03T05:57:36.906Z,100.00
2023-04-03T06:00:33.996Z,100.00
2023-04-03T06:03:31.240Z,100.00
2023-04-03T06:06:48.888Z,100.00
2023-04-03T06:09:45.904Z,100.00
2023-04-03T06:12:42.758Z,100.00
2023-04-03T06:15:40.851Z,100.00
2023-04-03T06:18:37.685Z,100.00
2023-04-03T06:21:34.577Z,100.00
2023-04-03T06:24:32.603Z,100.00
2023-04-03T06:27:29.561Z,100.00
2023-04-03T06:30:26.612Z,100.00
2023-04-03T06:33:23.459Z,100.00
2023-04-03T06:36:22.104Z,100.00
2023-04-03T06:39:23.472Z,100.00
2023-04-03T06:42:20.295Z,100.00
2023-04-03T06:45:17.545Z,100.00
2023-04-03T06:48:14.473Z,100.00
2023-04-03T06:51:21.650Z,100.00
2023-04-03T06:54:19.254Z,100.00
2023-04-03T06:57:16.270Z,100.00
2023-04-03T07:00:14.214Z,100.00
2023-04-03T07:03:11.050Z,100.00
2023-04-03T07:06:11.701Z,100.00
2023-04-03T07:09:08.704Z,100.00
2023-04-03T07:12:05.604Z,100.00
2023-04-03T07:15:02.524Z,100.00
2023-04-03T07:17:59.412Z,100.00
2023-04-03T07:20:56.797Z,100.00
2023-04-03T07:23:53.683Z,100.00
2023-04-03T07:26:52.485Z,100.00
2023-04-03T07:29:49.581Z,100.00
2023-04-03T07:32:46.887Z,100.00
2023-04-03T07:35:44.906Z,100.00
2023-04-03T07:38:41.747Z,100.00
2023-04-03T07:41:38.602Z,100.00
2023-04-03T07:44:36.457Z,100.00
2023-04-03T07:47:33.302Z,100.00
2023-04-03T07:50:31.458Z,100.00
2023-04-03T07:53:28.863Z,100.00
2023-04-03T07:56:26.199Z,100.00
2023-04-03T07:59:23.028Z,100.00
2023-04-03T08:02:19.827Z,100.00
2023-04-03T08:05:17.873Z,100.00
2023-04-03T08:08:20.893Z,88.83
2023-04-03T08:11:19.673Z,95.14
2023-04-03T08:14:18.822Z,91.95
2023-04-03T08:17:15.868Z,99.48
2023-04-03T08:20:12.932Z,96.27
2023-04-03T08:23:10.534Z,95.12
2023-04-03T08:26:14.888Z,100.00
2023-04-03T08:29:11.816Z,100.00
2023-04-03T08:32:08.712Z,100.00
2023-04-03T08:35:06.815Z,100.00
2023-04-03T08:38:03.739Z,100.00
2023-04-03T08:41:32.776Z,100.00
2023-04-03T08:44:53.107Z,93.84
2023-04-03T08:48:18.111Z,84.43
2023-04-03T08:51:19.692Z,89.59
2023-04-03T08:54:32.985Z,86.84
2023-04-03T08:57:40.640Z,84.69
2023-04-03T09:01:04.983Z,79.67
2023-04-03T09:04:17.088Z,94.52
2023-04-03T09:07:34.162Z,100.00
2023-04-03T09:10:36.255Z,100.00
2023-04-03T09:13:51.709Z,100.00
2023-04-03T09:17:11.315Z,89.82
2023-04-03T09:20:20.711Z,88.83
2023-04-03T09:23:33.586Z,83.01
2023-04-03T09:26:37.117Z,83.09
2023-04-03T09:29:40.467Z,71.19
2023-04-03T09:32:37.789Z,84.11
2023-04-03T09:35:48.105Z,70.45
2023-04-03T09:38:46.610Z,70.97
2023-04-03T09:42:00.941Z,82.70
2023-04-03T09:45:04.567Z,64.69
2023-04-03T09:48:16.149Z,63.85
2023-04-03T09:51:16.874Z,61.55
2023-04-03T09:54:39.537Z,56.03
2023-04-03T09:57:36.533Z,57.43
2023-04-03T10:00:39.569Z,57.78
2023-04-03T10:03:37.584Z,66.47
2023-04-03T10:06:41.657Z,63.80
2023-04-03T10:09:42.186Z,60.98
2023-04-03T10:12:38.987Z,56.97
2023-04-03T10:15:45.904Z,55.04
2023-04-03T10:19:08.146Z,51.75
2023-04-03T10:22:19.665Z,56.80
2023-04-03T10:25:31.698Z,56.94
2023-04-03T10:28:47.657Z,55.34
2023-04-03T10:32:13.814Z,53.06
2023-04-03T10:35:39.566Z,55.59
2023-04-03T10:38:58.530Z,52.80
2023-04-03T10:42:17.701Z,51.44
2023-04-03T10:45:48.511Z,55.59
2023-04-03T10:49:03.574Z,52.72
2023-04-03T10:52:23.248Z,54.86
2023-04-03T10:55:43.890Z,50.46
2023-04-03T10:58:46.304Z,52.50
2023-04-03T11:01:49.022Z,54.16
2023-04-03T11:04:53.195Z,48.22
2023-04-03T11:07:54.311Z,50.07
2023-04-03T11:10:52.996Z,48.74
2023-04-03T11:13:53.823Z,52.86
2023-04-03T11:17:11.521Z,47.62
2023-04-03T11:20:28.625Z,53.76
2023-04-03T11:23:48.150Z,46.36
2023-04-03T11:26:46.387Z,52.55
2023-04-03T11:29:46.895Z,49.20
2023-04-03T11:32:53.909Z,49.18
2023-04-03T11:35:56.698Z,53.63
2023-04-03T11:38:59.890Z,50.67
2023-04-03T11:42:13.635Z,48.42
2023-04-03T11:45:36.486Z,67.04
2023-04-03T11:48:36.872Z,59.64
2023-04-03T11:51:42.541Z,52.53
2023-04-03T11:54:44.786Z,49.25
2023-04-03T11:58:04.945Z,45.53
2023-04-03T12:01:08.522Z,46.60
2023-04-03T12:04:14.950Z,45.16
2023-04-03T12:07:20.836Z,44.21
2023-04-03T12:10:30.797Z,50.60
2023-04-03T12:13:31.310Z,51.32
2023-04-03T12:16:33.379Z,52.67
2023-04-03T12:19:44.288Z,46.42
2023-04-03T12:23:01.314Z,44.24
2023-04-03T12:26:20.641Z,49.88
2023-04-03T12:29:33.966Z,47.57
2023-04-03T12:33:12.989Z,49.14
2023-04-03T12:36:23.673Z,49.10
2023-04-03T12:39:45.120Z,51.56
2023-04-03T12:43:19.903Z,48.85
2023-04-03T12:46:43.343Z,52.11
2023-04-03T12:49:43.745Z,46.56
2023-04-03T12:52:46.994Z,50.44
2023-04-03T12:55:44.157Z,51.67
2023-04-03T12:58:41.100Z,48.66
2023-04-03T13:01:38.023Z,47.71
2023-04-03T13:04:35.073Z,61.72
2023-04-03T13:07:38.936Z,56.59
2023-04-03T13:11:07.185Z,47.67
2023-04-03T13:14:15.852Z,45.89
2023-04-03T13:17:17.380Z,47.13
2023-04-03T13:20:24.432Z,49.75
2023-04-03T13:23:22.105Z,65.94
2023-04-03T13:26:22.675Z,60.04
2023-04-03T13:29:37.007Z,48.60
2023-04-03T13:32:34.025Z,47.65
2023-04-03T13:35:41.525Z,50.84
2023-04-03T13:38:38.472Z,56.69
2023-04-03T13:41:39.121Z,55.00
2023-04-03T13:44:40.447Z,54.46
2023-04-03T13:47:44.493Z,53.76
2023-04-03T13:51:05.406Z,53.88
2023-04-03T13:54:12.011Z,50.07
2023-04-03T13:57:16.737Z,50.65
2023-04-03T14:00:31.398Z,53.87
2023-04-03T14:03:47.076Z,82.97
2023-04-03T14:06:44.798Z,69.26
2023-04-03T14:09:41.673Z,67.88
2023-04-03T14:12:42.400Z,54.61
2023-04-03T14:15:39.548Z,51.55
2023-04-03T14:18:38.214Z,56.24
2023-04-03T14:21:35.066Z,54.59
2023-04-03T14:24:31.882Z,56.57
2023-04-03T14:27:38.789Z,62.57
2023-04-03T14:30:36.556Z,58.70
2023-04-03T14:33:35.814Z,49.65
2023-04-03T14:36:33.852Z,56.59
2023-04-03T14:39:31.282Z,54.92
2023-04-03T14:42:33.117Z,69.81
2023-04-03T14:45:30.076Z,63.18
2023-04-03T14:48:30.484Z,57.50
2023-04-03T14:51:27.452Z,51.66
2023-04-03T14:54:29.083Z,53.20
2023-04-03T14:57:31.031Z,50.87
2023-04-03T15:00:28.487Z,60.85
2023-04-03T15:03:25.721Z,62.30
2023-04-03T15:06:23.240Z,66.41
2023-04-03T15:09:26.610Z,69.13
2023-04-03T15:12:25.879Z,57.20
2023-04-03T15:15:24.828Z,52.87
2023-04-03T15:18:27.921Z,56.02
2023-04-03T15:21:25.980Z,72.04
2023-04-03T15:24:22.874Z,77.53
2023-04-03T15:27:20.029Z,76.90
2023-04-03T15:30:19.738Z,94.45
2023-04-03T15:33:16.738Z,75.37
2023-04-03T15:36:29.121Z,61.30
2023-04-03T15:39:30.846Z,60.76
2023-04-03T15:42:27.678Z,64.16
2023-04-03T15:45:24.766Z,66.46
2023-04-03T15:48:21.594Z,73.88
2023-04-03T15:51:18.568Z,82.70
2023-04-03T15:54:16.641Z,82.63
2023-04-03T15:57:13.773Z,86.65
2023-04-03T16:00:11.650Z,86.77
2023-04-03T16:03:18.003Z,65.43
2023-04-03T16:06:19.822Z,67.57
2023-04-03T16:09:16.892Z,66.95
2023-04-03T16:12:13.766Z,63.18
2023-04-03T16:15:11.512Z,69.48
2023-04-03T16:18:10.861Z,76.09
2023-04-03T16:21:10.123Z,80.18
2023-04-03T16:24:07.520Z,95.25
2023-04-03T16:27:04.640Z,85.06
2023-04-03T16:30:01.479Z,88.20
2023-04-03T16:32:58.624Z,85.21
2023-04-03T16:35:55.681Z,90.77
2023-04-03T16:38:52.722Z,98.38
2023-04-03T16:41:49.574Z,96.52
2023-04-03T16:44:46.466Z,92.86
2023-04-03T16:47:43.461Z,96.21
2023-04-03T16:50:40.433Z,89.31
2023-04-03T16:53:37.355Z,90.68
2023-04-03T16:56:34.305Z,87.73
2023-04-03T16:59:31.214Z,100.00
2023-04-03T17:02:28.602Z,100.00
2023-04-03T17:05:25.576Z,90.85
2023-04-03T17:08:22.382Z,94.82
2023-04-03T17:11:20.015Z,92.98
2023-04-03T17:14:17.026Z,100.00
2023-04-03T17:17:15.857Z,96.46
2023-04-03T17:20:13.234Z,93.49
2023-04-03T17:23:10.100Z,93.46
2023-04-03T17:26:07.036Z,94.33
2023-04-03T17:29:04.961Z,91.84
2023-04-03T17:32:02.133Z,91.04
2023-04-03T17:34:59.011Z,87.20
2023-04-03T17:37:56.249Z,88.59
2023-04-03T17:40:57.600Z,90.57
2023-04-03T17:43:56.955Z,96.68
2023-04-03T17:46:53.821Z,95.10
2023-04-03T17:49:51.593Z,99.90
2023-04-03T17:52:48.404Z,100.00
2023-04-03T17:55:45.358Z,100.00
2023-04-03T17:58:42.964Z,100.00
2023-04-03T18:01:40.368Z,100.00
2023-04-03T18:04:37.400Z,100.00
2023-04-03T18:07:34.373Z,100.00
2023-04-03T18:10:31.322Z,100.00
2023-04-03T18:13:28.253Z,100.00
2023-04-03T18:16:25.406Z,100.00
2023-04-03T18:19:23.854Z,100.00
2023-04-03T18:22:24.108Z,100.00
2023-04-03T18:25:21.226Z,100.00
2023-04-03T18:28:18.341Z,100.00
2023-04-03T18:31:17.263Z,100.00
2023-04-03T18:34:14.112Z,100.00
2023-04-03T18:37:11.244Z,100.00
2023-04-03T18:40:09.022Z,100.00
2023-04-03T18:43:06.492Z,98.91
2023-04-03T18:46:05.363Z,97.95
2023-04-03T18:49:02.874Z,99.79
2023-04-03T18:51:59.873Z,100.00
2023-04-03T18:54:56.943Z,99.84
2023-04-03T18:57:53.807Z,100.00
2023-04-03T19:00:51.000Z,100.00
2023-04-03T19:03:48.215Z,100.00
2023-04-03T19:06:45.102Z,100.00
2023-04-03T19:09:42.071Z,100.00
2023-04-03T19:12:38.882Z,100.00
2023-04-03T19:15:35.871Z,100.00
2023-04-03T19:18:32.963Z,100.00
2023-04-03T19:21:30.229Z,100.00
2023-04-03T19:24:27.157Z,100.00
2023-04-03T19:27:24.026Z,100.00
2023-04-03T19:30:21.062Z,100.00
2023-04-03T19:33:17.894Z,100.00
2023-04-03T19:36:15.792Z,100.00
2023-04-03T19:39:14.811Z,100.00
2023-04-03T19:42:13.069Z,100.00
2023-04-03T19:45:12.680Z,100.00
2023-04-03T19:48:10.210Z,100.00
2023-04-03T19:51:08.278Z,100.00
2023-04-03T19:54:06.014Z,100.00
2023-04-03T19:57:02.989Z,100.00
2023-04-03T19:59:59.929Z,100.00
2023-04-03T20:02:57.385Z,100.00
2023-04-03T20:05:55.049Z,100.00
2023-04-03T20:08:53.579Z,100.00
2023-04-03T20:11:51.476Z,100.00
2023-04-03T20:14:49.461Z,100.00
2023-04-03T20:17:46.381Z,100.00
2023-04-03T20:20:57.297Z,100.00
2023-04-03T20:23:54.134Z,100.00
2023-04-03T20:26:50.956Z,100.00
2023-04-03T20:29:47.882Z,100.00
2023-04-03T20:32:44.878Z,100.00
2023-04-03T20:35:41.723Z,100.00
2023-04-03T20:38:38.672Z,100.00
2023-04-03T20:41:37.633Z,100.00
2023-04-03T20:44:34.495Z,100.00
2023-04-03T20:47:31.608Z,100.00
2023-04-03T20:50:28.983Z,100.00
2023-04-03T20:53:27.185Z,100.00
2023-04-03T20:56:24.347Z,100.00
2023-04-03T20:59:22.528Z,100.00
2023-04-03T21:02:20.655Z,100.00
2023-04-03T21:05:17.690Z,100.00
2023-04-03T21:09:11.100Z,100.00
2023-04-03T21:13:04.471Z,100.00
2023-04-03T21:16:02.212Z,100.00
2023-04-03T21:19:15.881Z,100.00
2023-04-03T21:22:13.789Z,100.00
2023-04-03T21:25:10.779Z,100.00
2023-04-03T21:28:07.680Z,100.00
2023-04-03T21:31:04.614Z,100.00
2023-04-03T21:34:01.652Z,100.00
2023-04-03T21:37:04.618Z,100.00
2023-04-03T21:40:01.652Z,100.00
2023-04-03T21:42:58.554Z,100.00
2023-04-03T21:45:57.482Z,100.00
2023-04-03T21:48:55.907Z,100.00
2023-04-03T21:51:52.830Z,100.00
2023-04-03T21:54:49.656Z,100.00
2023-04-03T21:57:53.692Z,100.00
2023-04-03T22:00:51.056Z,100.00
2023-04-03T22:03:48.070Z,100.00
2023-04-03T22:06:45.697Z,100.00
2023-04-03T22:09:42.595Z,100.00
2023-04-03T22:12:39.461Z,100.00
2023-04-03T22:15:47.268Z,100.00
2023-04-03T22:18:44.199Z,100.00
2023-04-03T22:21:42.567Z,100.00
2023-04-03T22:24:40.112Z,100.00
2023-04-03T22:27:37.000Z,100.00
2023-04-03T22:30:33.867Z,100.00
2023-04-03T22:33:31.210Z,100.00
2023-04-03T22:36:28.044Z,100.00
2023-04-03T22:39:24.908Z,100.00
2023-04-03T22:42:21.777Z,100.00
2023-04-03T22:45:18.596Z,100.00
2023-04-03T22:48:16.394Z,100.00
2023-04-03T22:51:13.439Z,100.00
2023-04-03T22:54:10.419Z,100.00
2023-04-03T22:57:07.668Z,100.00
2023-04-03T23:00:04.901Z,100.00
2023-04-03T23:03:02.047Z,100.00
2023-04-03T23:05:58.912Z,100.00
2023-04-03T23:08:56.127Z,100.00
2023-04-03T23:11:52.969Z,100.00
2023-04-03T23:14:49.804Z,100.00
2023-04-03T23:17:49.163Z,100.00
2023-04-03T23:20:46.371Z,100.00
2023-04-03T23:23:43.218Z,100.00
2023-04-03T23:26:40.058Z,100.00
2023-04-03T23:29:37.256Z,100.00
2023-04-03T23:32:34.288Z,100.00
2023-04-03T23:35:31.554Z,100.00
2023-04-03T23:38:28.380Z,100.00
2023-04-03T23:41:25.269Z,100.00
2023-04-03T23:44:22.113Z,100.00
2023-04-03T23:47:19.187Z,100.00
2023-04-03T23:50:16.458Z,100.00
2023-04-03T23:53:13.600Z,100.00
2023-04-03T23:56:12.518Z,100.00
2023-04-03T23:59:09.322Z,100.00
